Time;durP1;ratioP1;P1;durP2;ratioP2;P2;SDS_P1;SDS_P2;PMS_P1;PMS_P2;Temp;Humidity;BMP_temperature;BMP_pressure;BME280_temperature;BME280_humidity;BME280_pressure;Samples;Min_cycle;Max_cycle;Signal;HPM_P1;HPM_P2
2022/08/01 00:01:31;;;;;;;2.20;2.03;;;21.60;71.60;;;;;;5006651;28;20461;-79
2022/08/01 00:03:58;;;;;;;3.03;2.33;;;21.60;71.70;;;;;;5011743;28;20449;-79
2022/08/01 00:06:25;;;;;;;2.97;2.77;;;21.60;72.10;;;;;;5000161;28;20881;-78
2022/08/01 00:08:52;;;;;;;2.70;2.50;;;21.60;72.30;;;;;;4992606;28;20492;-78
2022/08/01 00:11:20;;;;;;;2.80;2.60;;;21.60;72.40;;;;;;5003694;28;20460;-78
2022/08/01 00:13:46;;;;;;;3.87;3.13;;;21.60;72.30;;;;;;5005467;28;20477;-79
2022/08/01 00:16:13;;;;;;;2.10;2.00;;;21.60;72.20;;;;;;4992637;28;20457;-79
2022/08/01 00:18:40;;;;;;;2.83;2.63;;;21.50;72.40;;;;;;4997564;28;20445;-79
2022/08/01 00:21:07;;;;;;;3.00;2.70;;;21.60;72.90;;;;;;5012399;28;20459;-78
2022/08/01 00:23:34;;;;;;;3.07;2.77;;;21.50;73.00;;;;;;5010740;28;20472;-78
2022/08/01 00:26:00;;;;;;;3.60;3.30;;;21.50;73.40;;;;;;5012007;28;20460;-78
2022/08/01 00:28:29;;;;;;;3.67;3.33;;;21.50;73.90;;;;;;4996518;28;20494;-78
2022/08/01 00:30:55;;;;;;;3.30;3.10;;;21.50;74.00;;;;;;4992387;28;21019;-79
2022/08/01 00:33:22;;;;;;;2.87;2.67;;;21.40;74.30;;;;;;5006881;28;20457;-78
2022/08/01 00:35:49;;;;;;;3.17;2.97;;;21.30;74.90;;;;;;5011819;28;20943;-79
2022/08/01 00:38:15;;;;;;;3.30;3.10;;;21.30;75.60;;;;;;4998998;28;20455;-78
2022/08/01 00:40:42;;;;;;;2.83;2.63;;;21.30;75.70;;;;;;5003268;28;20479;-79
2022/08/01 00:43:10;;;;;;;2.70;2.50;;;21.20;76.00;;;;;;5017611;28;20460;-79
2022/08/01 00:45:38;;;;;;;2.97;2.77;;;21.10;76.60;;;;;;5011509;28;20458;-79
2022/08/01 00:48:05;;;;;;;2.90;2.70;;;21.10;77.00;;;;;;4997918;28;20484;-79
2022/08/01 00:50:31;;;;;;;3.33;3.07;;;20.90;77.40;;;;;;4999418;28;20475;-79
2022/08/01 00:52:59;;;;;;;3.63;3.30;;;20.70;78.60;;;;;;4999077;28;20457;-79
2022/08/01 00:55:27;;;;;;;3.83;2.63;;;20.60;79.60;;;;;;5001968;28;20456;-78
2022/08/01 00:57:54;;;;;;;4.00;3.67;;;20.50;80.50;;;;;;5018393;28;20456;-78
2022/08/01 01:00:22;;;;;;;3.30;3.10;;;20.40;80.80;;;;;;5014535;28;20476;-79
2022/08/01 01:02:50;;;;;;;3.43;2.53;;;20.40;81.20;;;;;;4998415;28;20961;-79
2022/08/01 01:05:16;;;;;;;3.13;2.93;;;20.40;81.70;;;;;;4999059;28;20460;-79
2022/08/01 01:07:49;;;;;;;3.47;2.83;;;20.40;82.00;;;;;;4998032;28;20512;-79
2022/08/01 01:10:21;;;;;;;3.80;3.50;;;20.50;82.40;;;;;;5000126;28;20480;-79
2022/08/01 01:12:55;;;;;;;3.50;3.30;;;20.50;82.60;;;;;;4998813;28;20453;-79
2022/08/01 01:15:27;;;;;;;3.30;3.10;;;20.50;83.10;;;;;;5001578;28;20454;-79
2022/08/01 01:18:00;;;;;;;2.93;2.73;;;20.60;83.30;;;;;;5002313;28;20454;-79
2022/08/01 01:20:31;;;;;;;3.27;2.97;;;20.60;83.60;;;;;;5002231;28;20472;-78
2022/08/01 01:23:22;;;;;;;4.33;4.03;;;20.50;83.80;;;;;;5006979;28;20454;-79
2022/08/01 01:26:02;;;;;;;3.20;2.90;;;20.50;84.40;;;;;;5021136;28;20443;-78
2022/08/01 01:28:36;;;;;;;3.83;3.30;;;20.60;84.80;;;;;;5015535;28;21030;-79
2022/08/01 01:31:09;;;;;;;3.00;2.80;;;20.50;85.10;;;;;;5005869;28;20464;-79
2022/08/01 01:33:37;;;;;;;3.07;2.87;;;20.60;85.60;;;;;;5001994;28;20556;-78
2022/08/01 01:36:08;;;;;;;3.10;2.90;;;20.60;86.00;;;;;;5003368;28;20461;-78
2022/08/01 01:38:41;;;;;;;3.20;3.00;;;20.60;86.20;;;;;;5002140;28;20449;-78
2022/08/01 01:41:10;;;;;;;3.60;3.33;;;20.60;86.60;;;;;;5015928;28;20460;-78
2022/08/01 01:43:38;;;;;;;3.17;2.97;;;20.60;87.10;;;;;;5021624;28;20463;-78
2022/08/01 01:46:09;;;;;;;2.40;2.30;;;20.60;87.60;;;;;;5009086;28;20454;-78
2022/08/01 01:48:37;;;;;;;3.03;2.83;;;20.50;88.00;;;;;;5002527;28;20489;-78
2022/08/01 01:51:04;;;;;;;3.53;3.23;;;20.50;88.60;;;;;;5008446;28;20455;-78
2022/08/01 01:53:34;;;;;;;4.37;3.93;;;20.40;89.50;;;;;;5007257;28;20453;-78
2022/08/01 01:56:03;;;;;;;3.73;3.30;;;20.40;89.90;;;;;;4994908;28;20465;-78
2022/08/01 01:58:32;;;;;;;3.33;3.13;;;20.30;90.30;;;;;;4996391;28;20519;-79
2022/08/01 02:01:01;;;;;;;3.40;3.17;;;20.30;90.60;;;;;;4995342;28;20456;-79
2022/08/01 02:03:30;;;;;;;4.00;3.43;;;20.30;90.60;;;;;;4996878;28;20459;-78
2022/08/01 02:05:58;;;;;;;3.73;3.43;;;20.30;90.90;;;;;;4994763;28;20835;-79
2022/08/01 02:08:26;;;;;;;3.17;2.97;;;20.40;90.90;;;;;;5000105;28;20489;-78
2022/08/01 02:13:41;;;;;;;3.10;2.77;;;20.40;91.10;;;;;;5004812;28;20446;-79
2022/08/01 02:16:10;;;;;;;3.20;3.00;;;20.30;91.30;;;;;;5011251;28;20451;-79
2022/08/01 02:18:39;;;;;;;2.60;2.40;;;20.30;91.50;;;;;;5016630;28;20549;-78
2022/08/01 02:21:11;;;;;;;3.00;2.80;;;20.30;91.70;;;;;;5006584;28;20456;-78
2022/08/01 02:23:40;;;;;;;3.33;3.03;;;20.30;91.80;;;;;;5001328;28;20522;-78
2022/08/01 02:26:10;;;;;;;4.23;3.93;;;20.30;92.00;;;;;;5001438;28;21054;-78
2022/08/01 02:28:42;;;;;;;4.70;3.33;;;20.10;92.20;;;;;;5003206;28;20484;-79
2022/08/01 02:31:14;;;;;;;3.63;3.27;;;20.10;92.70;;;;;;5020054;28;20456;-79
2022/08/01 02:33:45;;;;;;;4.30;3.90;;;19.90;93.20;;;;;;5012921;28;20451;-78
2022/08/01 02:36:13;;;;;;;3.90;3.50;;;19.90;93.50;;;;;;5001395;28;20459;-79
2022/08/01 02:38:44;;;;;;;3.63;3.40;;;19.90;93.80;;;;;;5007383;28;20448;-79
2022/08/01 02:41:15;;;;;;;3.50;3.30;;;19.80;93.80;;;;;;5017518;28;20447;-78
2022/08/01 02:43:49;;;;;;;3.40;3.10;;;19.80;94.20;;;;;;5000402;28;20462;-79
2022/08/01 02:46:37;;;;;;;3.00;2.80;;;19.90;94.20;;;;;;5001954;28;20448;-79
2022/08/01 02:49:09;;;;;;;4.10;3.70;;;19.90;94.60;;;;;;5002227;28;20492;-77
2022/08/01 02:51:37;;;;;;;3.87;3.57;;;19.80;94.80;;;;;;5005907;28;20447;-77
2022/08/01 02:54:07;;;;;;;3.40;3.00;;;19.80;95.00;;;;;;5020272;28;20453;-78
2022/08/01 02:56:36;;;;;;;3.77;3.47;;;19.80;95.10;;;;;;5015822;28;20455;-77
2022/08/01 02:59:06;;;;;;;3.30;3.00;;;19.80;95.20;;;;;;5018985;28;20467;-77
2022/08/01 03:01:34;;;;;;;3.23;2.67;;;19.80;95.30;;;;;;5020861;28;20458;-78
2022/08/01 03:04:02;;;;;;;3.27;3.00;;;19.80;95.50;;;;;;5000912;28;20559;-78
2022/08/01 03:06:31;;;;;;;4.43;3.60;;;19.80;95.60;;;;;;5003387;28;20475;-78
2022/08/01 03:08:59;;;;;;;3.87;3.67;;;19.70;96.10;;;;;;5020407;28;20866;-79
2022/08/01 03:11:28;;;;;;;3.80;3.40;;;19.60;96.40;;;;;;5018574;28;20442;-78
2022/08/01 03:13:57;;;;;;;3.70;3.40;;;19.50;96.70;;;;;;4998259;28;20450;-78
2022/08/01 03:16:27;;;;;;;3.90;3.60;;;19.50;97.20;;;;;;5000911;28;20458;-78
2022/08/01 03:18:55;;;;;;;4.10;3.80;;;19.30;97.60;;;;;;4998650;28;20447;-78
2022/08/01 03:21:24;;;;;;;3.77;3.47;;;19.30;97.90;;;;;;4999021;28;20446;-78
2022/08/01 03:23:56;;;;;;;3.40;3.10;;;19.30;98.10;;;;;;4997645;28;20444;-78
2022/08/01 03:26:25;;;;;;;3.20;3.00;;;19.30;98.40;;;;;;5000221;28;20455;-79
2022/08/01 03:28:56;;;;;;;3.70;3.40;;;19.30;98.60;;;;;;4999079;28;20915;-78
2022/08/01 03:31:23;;;;;;;4.17;3.77;;;19.30;98.90;;;;;;5000122;28;20453;-78
2022/08/01 03:33:50;;;;;;;3.63;3.33;;;19.30;99.00;;;;;;4998984;28;20453;-78
2022/08/01 03:36:21;;;;;;;3.50;3.20;;;19.40;99.10;;;;;;4999990;28;20459;-78
2022/08/01 03:38:49;;;;;;;3.50;2.60;;;19.40;99.20;;;;;;4992360;28;20445;-78
2022/08/01 03:41:21;;;;;;;3.90;3.60;;;19.40;99.50;;;;;;4993283;28;20448;-78
2022/08/01 03:43:55;;;;;;;3.00;2.80;;;19.40;99.70;;;;;;4992491;28;20455;-78
2022/08/01 03:46:29;;;;;;;3.27;2.97;;;19.30;99.90;;;;;;4992693;28;20448;-78
2022/08/01 03:48:59;;;;;;;3.37;3.07;;;19.30;99.90;;;;;;4995455;28;20483;-78
2022/08/01 03:51:25;;;;;;;3.53;3.33;;;19.20;99.90;;;;;;4992638;28;20448;-78
2022/08/01 03:53:55;;;;;;;3.50;3.30;;;19.30;99.90;;;;;;4993459;28;20452;-78
2022/08/01 03:56:24;;;;;;;3.60;3.30;;;19.20;99.90;;;;;;4992428;28;20459;-77
2022/08/01 03:58:51;;;;;;;4.20;3.80;;;19.30;99.90;;;;;;4992938;28;20528;-78
2022/08/01 04:01:19;;;;;;;3.30;2.97;;;19.20;99.90;;;;;;4993879;28;20472;-79
2022/08/01 04:03:46;;;;;;;5.83;2.87;;;19.10;99.90;;;;;;4992216;28;20458;-78
2022/08/01 04:06:13;;;;;;;4.00;3.80;;;19.10;99.90;;;;;;4994208;28;20451;-77
2022/08/01 04:08:41;;;;;;;5.77;3.83;;;19.10;99.90;;;;;;4992276;28;20479;-78
2022/08/01 04:11:09;;;;;;;3.80;3.50;;;19.00;99.90;;;;;;4990116;28;20449;-78
2022/08/01 04:13:37;;;;;;;3.33;3.13;;;19.00;99.90;;;;;;4992362;28;20440;-78
2022/08/01 04:16:05;;;;;;;3.53;3.23;;;19.00;99.90;;;;;;4992018;28;20445;-78
2022/08/01 04:18:31;;;;;;;3.23;2.93;;;19.00;99.90;;;;;;4995300;28;20797;-78
2022/08/01 04:20:58;;;;;;;3.90;3.20;;;19.00;99.90;;;;;;4994667;28;20902;-78
2022/08/01 04:23:27;;;;;;;2.80;2.60;;;19.10;99.90;;;;;;4996933;28;20447;-78
2022/08/01 04:25:56;;;;;;;4.20;3.10;;;19.10;99.90;;;;;;4992418;28;20472;-77
2022/08/01 04:28:23;;;;;;;3.83;2.90;;;19.10;99.90;;;;;;4989891;28;21000;-78
2022/08/01 04:30:55;;;;;;;2.80;2.60;;;19.20;99.90;;;;;;4994967;28;20478;-78
2022/08/01 04:33:22;;;;;;;2.70;2.50;;;19.30;99.90;;;;;;5002303;28;20454;-78
2022/08/01 04:35:50;;;;;;;3.50;3.20;;;19.30;99.90;;;;;;4993844;28;20560;-78
2022/08/01 04:38:22;;;;;;;3.10;2.90;;;19.40;99.90;;;;;;4999469;28;20806;-78
2022/08/01 04:40:51;;;;;;;3.90;3.20;;;19.40;99.90;;;;;;4991962;28;20486;-78
2022/08/01 04:43:18;;;;;;;3.30;3.00;;;19.40;99.90;;;;;;4991760;28;20444;-77
2022/08/01 04:45:47;;;;;;;3.47;2.77;;;19.50;99.90;;;;;;4993763;28;20458;-77
2022/08/01 04:48:17;;;;;;;2.90;2.70;;;19.40;99.90;;;;;;4992098;28;20455;-79
2022/08/01 04:50:44;;;;;;;4.10;3.20;;;19.50;99.90;;;;;;4995713;28;20479;-79
2022/08/01 04:53:14;;;;;;;3.17;2.97;;;19.50;99.90;;;;;;4997418;28;20448;-77
2022/08/01 04:55:41;;;;;;;2.97;2.77;;;19.50;99.90;;;;;;4998374;28;20456;-78
2022/08/01 04:58:09;;;;;;;2.60;2.40;;;19.50;99.90;;;;;;4993272;28;20477;-78
2022/08/01 05:00:36;;;;;;;3.63;2.97;;;19.50;99.90;;;;;;4994447;28;20519;-78
2022/08/01 05:03:03;;;;;;;2.80;2.60;;;19.60;99.90;;;;;;4995561;28;20956;-78
2022/08/01 05:05:31;;;;;;;2.57;2.47;;;19.70;99.90;;;;;;4996544;28;20455;-77
2022/08/01 05:07:58;;;;;;;3.20;2.90;;;19.80;99.90;;;;;;4995687;28;20459;-77
2022/08/01 05:10:25;;;;;;;2.13;2.03;;;19.80;99.90;;;;;;4995238;28;20492;-78
2022/08/01 05:12:52;;;;;;;2.53;2.43;;;19.90;99.90;;;;;;4995675;28;20455;-78
2022/08/01 05:15:19;;;;;;;2.63;2.53;;;20.00;99.90;;;;;;4997205;28;20476;-78
2022/08/01 05:17:46;;;;;;;2.70;2.57;;;20.00;99.90;;;;;;4998729;28;20790;-78
2022/08/01 05:20:13;;;;;;;4.47;2.67;;;20.00;99.90;;;;;;4997683;28;20472;-79
2022/08/01 05:22:42;;;;;;;3.07;2.87;;;20.10;99.90;;;;;;4997644;28;20462;-79
2022/08/01 05:25:09;;;;;;;3.10;2.90;;;20.10;99.90;;;;;;4997479;28;20951;-79
2022/08/01 05:27:39;;;;;;;7.03;3.10;;;20.20;99.90;;;;;;4998661;28;20453;-78
2022/08/01 05:30:07;;;;;;;3.10;2.80;;;20.20;99.90;;;;;;4997336;28;21002;-79
2022/08/01 05:32:33;;;;;;;4.50;3.30;;;20.30;99.90;;;;;;5000021;28;20482;-79
2022/08/01 05:35:00;;;;;;;3.80;3.07;;;20.30;99.90;;;;;;5002811;28;20460;-79
2022/08/01 05:37:27;;;;;;;4.77;2.63;;;20.50;99.90;;;;;;5013185;28;20464;-79
2022/08/01 05:39:55;;;;;;;3.27;2.57;;;20.60;99.90;;;;;;5021957;28;21329;-78
2022/08/01 05:42:22;;;;;;;2.40;2.20;;;20.60;99.90;;;;;;5011015;28;20455;-79
2022/08/01 05:44:50;;;;;;;3.40;3.10;;;20.60;99.90;;;;;;5001377;28;20459;-79
2022/08/01 05:47:16;;;;;;;2.50;2.30;;;20.60;99.90;;;;;;5010740;28;20485;-79
2022/08/01 05:49:43;;;;;;;3.07;2.77;;;20.60;99.90;;;;;;5021387;28;20871;-79
2022/08/01 05:52:10;;;;;;;2.50;2.30;;;20.70;99.90;;;;;;5020428;28;20457;-79
2022/08/01 05:54:37;;;;;;;2.77;2.57;;;20.70;99.90;;;;;;5021708;28;20448;-79
2022/08/01 05:57:05;;;;;;;2.40;2.20;;;20.80;99.90;;;;;;5017346;28;20455;-80
2022/08/01 05:59:32;;;;;;;2.60;2.20;;;20.80;99.90;;;;;;5008696;28;20478;-80
2022/08/01 06:01:59;;;;;;;2.63;2.47;;;20.90;99.90;;;;;;5011495;28;20754;-81
2022/08/01 06:04:26;;;;;;;2.43;2.23;;;21.00;99.90;;;;;;5020103;28;20817;-79
2022/08/01 06:06:52;;;;;;;3.20;2.70;;;21.10;99.90;;;;;;5009786;28;20458;-78
2022/08/01 06:09:19;;;;;;;2.30;2.17;;;21.10;99.90;;;;;;5006218;28;20485;-78
2022/08/01 06:11:46;;;;;;;4.90;2.50;;;21.10;99.90;;;;;;5018993;28;20461;-79
2022/08/01 06:14:14;;;;;;;2.03;1.93;;;21.20;99.90;;;;;;5011013;28;20465;-78
2022/08/01 06:16:41;;;;;;;2.37;2.17;;;21.30;99.90;;;;;;4999079;28;20893;-79
2022/08/01 06:19:07;;;;;;;2.60;2.50;;;21.40;99.90;;;;;;5003959;28;20473;-78
2022/08/01 06:21:34;;;;;;;3.23;2.30;;;21.40;99.90;;;;;;4999258;28;20482;-79
2022/08/01 06:24:01;;;;;;;4.87;2.20;;;21.50;99.90;;;;;;5000077;28;20443;-79
2022/08/01 06:26:27;;;;;;;3.67;1.50;;;21.60;99.90;;;;;;4999085;28;20458;-79
2022/08/01 06:28:54;;;;;;;2.40;2.20;;;21.80;99.90;;;;;;5002530;28;20482;-79
2022/08/01 06:31:22;;;;;;;2.03;1.90;;;21.90;99.90;;;;;;5018626;28;20454;-79
2022/08/01 06:33:49;;;;;;;8.03;7.20;;;22.10;99.90;;;;;;5009736;28;20458;-79
2022/08/01 06:36:15;;;;;;;5.97;4.47;;;22.10;99.90;;;;;;5002226;28;20458;-79
2022/08/01 06:38:42;;;;;;;2.30;1.93;;;22.10;99.90;;;;;;4999801;28;20457;-79
2022/08/01 06:41:09;;;;;;;1.90;1.80;;;22.10;99.90;;;;;;5015336;28;20449;-79
2022/08/01 06:43:35;;;;;;;2.07;1.87;;;22.20;99.90;;;;;;5018972;28;20461;-79
2022/08/01 06:46:02;;;;;;;3.80;3.43;;;22.30;99.90;;;;;;5004874;28;20455;-80
2022/08/01 06:48:30;;;;;;;2.00;1.90;;;22.30;99.90;;;;;;5001343;28;20477;-79
2022/08/01 06:51:08;;;;;;;2.07;1.97;;;22.20;99.90;;;;;;5007437;28;20494;-80
2022/08/01 06:53:35;;;;;;;2.40;2.10;;;22.30;99.90;;;;;;4998462;28;20450;-79
2022/08/01 06:56:02;;;;;;;2.70;2.50;;;22.30;99.90;;;;;;4998806;28;20458;-80
2022/08/01 06:58:28;;;;;;;2.10;2.00;;;22.30;99.90;;;;;;4999456;28;20455;-80
2022/08/01 07:00:55;;;;;;;2.50;2.30;;;22.30;99.90;;;;;;5005380;28;20527;-82
2022/08/01 07:03:22;;;;;;;2.27;1.70;;;22.30;99.90;;;;;;5002827;28;20458;-82
2022/08/01 07:05:50;;;;;;;2.00;1.87;;;22.30;99.90;;;;;;4998922;28;20466;-81
2022/08/01 07:08:17;;;;;;;2.03;1.80;;;22.40;99.90;;;;;;5014401;28;20455;-82
2022/08/01 07:10:44;;;;;;;4.07;1.90;;;22.40;99.90;;;;;;5007637;28;20478;-83
2022/08/01 07:13:12;;;;;;;2.93;1.90;;;22.50;99.90;;;;;;4996348;28;20454;-83
2022/08/01 07:15:38;;;;;;;2.07;1.87;;;22.60;99.90;;;;;;5013036;28;20454;-81
2022/08/01 07:18:05;;;;;;;1.87;1.77;;;22.70;99.90;;;;;;4996495;28;20454;-80
2022/08/01 07:20:32;;;;;;;1.73;1.63;;;22.70;99.70;;;;;;4995089;28;20476;-81
2022/08/01 07:23:00;;;;;;;1.93;1.83;;;22.80;99.90;;;;;;4996108;28;20446;-81
2022/08/01 07:25:26;;;;;;;2.43;2.23;;;22.80;99.50;;;;;;4995851;28;20451;-81
2022/08/01 07:27:53;;;;;;;2.63;2.43;;;22.90;99.30;;;;;;5013352;28;20431;-79
2022/08/01 07:30:20;;;;;;;1.97;1.87;;;23.00;99.50;;;;;;5018616;28;20486;-80
2022/08/01 07:32:47;;;;;;;2.13;2.03;;;23.10;99.10;;;;;;5018866;28;20435;-79
2022/08/01 07:35:13;;;;;;;2.30;2.17;;;23.10;98.90;;;;;;5018835;28;20427;-80
2022/08/01 07:37:40;;;;;;;4.77;2.80;;;23.10;98.40;;;;;;5018780;28;20443;-80
2022/08/01 07:40:10;;;;;;;2.20;2.10;;;23.30;98.30;;;;;;5017877;28;20464;-79
2022/08/01 07:42:37;;;;;;;2.90;2.20;;;23.40;98.90;;;;;;5016674;28;20431;-78
2022/08/01 07:45:04;;;;;;;2.70;2.50;;;23.30;98.00;;;;;;5018563;28;20448;-80
2022/08/01 07:47:30;;;;;;;2.87;2.43;;;23.30;98.10;;;;;;5018544;28;20454;-81
2022/08/01 07:50:01;;;;;;;2.27;2.10;;;23.40;98.00;;;;;;5018782;28;20481;-82
2022/08/01 07:52:27;;;;;;;2.40;2.20;;;23.60;97.40;;;;;;5018953;28;20417;-81
2022/08/01 07:54:54;;;;;;;2.57;2.37;;;23.50;97.50;;;;;;5018618;28;20457;-82
2022/08/01 07:57:22;;;;;;;2.90;2.70;;;23.50;97.30;;;;;;5018720;28;20462;-82
2022/08/01 07:59:49;;;;;;;2.33;2.07;;;23.50;97.30;;;;;;5018528;28;20459;-80
2022/08/01 08:02:16;;;;;;;2.67;2.47;;;23.60;96.90;;;;;;5018591;28;20437;-81
2022/08/01 08:04:43;;;;;;;3.87;3.07;;;23.70;97.10;;;;;;5017889;28;20437;-82
2022/08/01 08:07:10;;;;;;;7.63;3.60;;;24.00;96.70;;;;;;5018238;28;20444;-82
2022/08/01 08:09:36;;;;;;;3.73;3.30;;;24.10;96.40;;;;;;5017806;28;20501;-80
2022/08/01 08:12:04;;;;;;;2.70;2.47;;;24.10;96.30;;;;;;5013285;28;20445;-80
2022/08/01 08:14:32;;;;;;;2.87;2.63;;;24.30;96.60;;;;;;4995464;28;20479;-81
2022/08/01 08:16:58;;;;;;;2.90;2.70;;;24.30;96.40;;;;;;4995038;28;20577;-81
2022/08/01 08:19:25;;;;;;;2.80;2.60;;;24.40;96.30;;;;;;4994915;28;20476;-80
2022/08/01 08:21:52;;;;;;;3.23;2.90;;;24.60;95.90;;;;;;4999248;28;20456;-81
2022/08/01 08:24:21;;;;;;;2.30;2.20;;;24.70;95.60;;;;;;4999066;28;20464;-81
2022/08/01 08:26:48;;;;;;;3.10;2.73;;;24.60;95.30;;;;;;5000321;28;20461;-81
2022/08/01 08:29:16;;;;;;;3.30;3.10;;;24.40;95.40;;;;;;4999587;28;20481;-81
2022/08/01 08:31:44;;;;;;;3.00;2.80;;;24.50;95.40;;;;;;5000787;28;20473;-80
2022/08/01 08:34:11;;;;;;;3.17;2.97;;;24.70;95.20;;;;;;4999785;28;20472;-80
2022/08/01 08:36:38;;;;;;;3.57;3.20;;;24.70;94.50;;;;;;4999361;28;20457;-80
2022/08/01 08:39:05;;;;;;;2.60;2.40;;;25.00;94.70;;;;;;4998998;28;20482;-80
2022/08/01 08:41:32;;;;;;;3.47;3.17;;;25.10;94.30;;;;;;4998541;28;20451;-80
2022/08/01 08:43:58;;;;;;;3.90;3.60;;;25.00;94.00;;;;;;4998884;28;20454;-80
2022/08/01 08:46:27;;;;;;;3.40;2.90;;;25.00;94.20;;;;;;4998912;28;20459;-80
2022/08/01 08:48:56;;;;;;;4.10;3.10;;;25.00;94.10;;;;;;4999531;28;20462;-80
2022/08/01 08:51:26;;;;;;;3.40;3.20;;;25.00;94.30;;;;;;4998897;28;20497;-80
2022/08/01 08:53:56;;;;;;;3.23;3.00;;;25.10;93.90;;;;;;4999189;28;20456;-80
2022/08/01 08:56:24;;;;;;;3.77;3.47;;;25.10;94.30;;;;;;4998655;28;20449;-80
2022/08/01 08:58:52;;;;;;;3.63;3.33;;;25.10;94.10;;;;;;4999096;28;20458;-80
2022/08/01 09:01:19;;;;;;;3.40;3.10;;;25.20;93.50;;;;;;4998761;28;20450;-80
2022/08/01 09:03:46;;;;;;;4.37;3.97;;;25.20;93.50;;;;;;4999646;28;20844;-80
2022/08/01 09:06:14;;;;;;;3.33;3.13;;;25.30;93.70;;;;;;5002169;28;20458;-82
2022/08/01 09:08:41;;;;;;;3.83;3.53;;;25.50;93.30;;;;;;5001737;28;20453;-80
2022/08/01 09:11:08;;;;;;;4.00;3.70;;;25.70;92.40;;;;;;5002269;28;20499;-82
2022/08/01 09:13:34;;;;;;;4.13;3.83;;;25.80;92.30;;;;;;5003118;28;20863;-81
2022/08/01 09:16:01;;;;;;;6.10;5.07;;;26.00;91.40;;;;;;5001444;28;20531;-82
2022/08/01 09:18:31;;;;;;;3.90;3.60;;;26.10;91.30;;;;;;5001993;28;20451;-80
2022/08/01 09:21:14;;;;;;;4.70;4.30;;;26.20;91.20;;;;;;5002782;28;20494;-81
2022/08/01 09:23:45;;;;;;;5.40;4.90;;;26.20;91.20;;;;;;5001447;28;20486;-80
2022/08/01 09:26:12;;;;;;;5.70;4.73;;;26.10;90.60;;;;;;5001680;28;20524;-81
2022/08/01 09:28:40;;;;;;;4.50;3.90;;;25.90;91.10;;;;;;5002242;28;20452;-82
2022/08/01 09:31:09;;;;;;;5.70;5.30;;;25.90;91.60;;;;;;5001726;28;20585;-81
2022/08/01 09:33:53;;;;;;;4.27;3.97;;;25.90;91.90;;;;;;5003087;28;20464;-81
2022/08/01 09:36:21;;;;;;;4.70;4.40;;;26.00;91.20;;;;;;5001758;28;20457;-82
2022/08/01 09:38:50;;;;;;;4.67;4.40;;;25.90;91.20;;;;;;5005172;28;20447;-82
2022/08/01 09:41:18;;;;;;;7.00;6.50;;;26.00;91.60;;;;;;5005024;28;20446;-81
2022/08/01 09:43:50;;;;;;;7.03;6.53;;;26.00;91.10;;;;;;5005032;28;20452;-82
2022/08/01 09:46:18;;;;;;;7.27;6.77;;;26.10;91.10;;;;;;5004647;28;20446;-82
2022/08/01 09:49:01;;;;;;;7.83;7.23;;;26.20;90.80;;;;;;5004652;28;20515;-82
2022/08/01 09:51:35;;;;;;;7.87;7.27;;;26.50;91.00;;;;;;5004336;28;20485;-81
2022/08/01 09:54:05;;;;;;;7.10;6.60;;;26.60;90.00;;;;;;5003979;28;20440;-81
2022/08/01 09:56:38;;;;;;;6.10;5.70;;;26.70;90.00;;;;;;5004512;28;20519;-82
2022/08/01 09:59:05;;;;;;;5.97;5.67;;;27.00;89.40;;;;;;5003511;28;20482;-82
2022/08/01 10:01:44;;;;;;;5.97;5.63;;;27.00;88.50;;;;;;5004089;28;20448;-82
2022/08/01 10:04:13;;;;;;;6.57;6.07;;;26.90;89.20;;;;;;5001255;28;20477;-80
2022/08/01 10:06:43;;;;;;;7.20;6.70;;;26.70;89.00;;;;;;5001682;28;20464;-80
2022/08/01 10:09:13;;;;;;;6.63;6.13;;;26.70;90.00;;;;;;5001800;28;20574;-80
2022/08/01 10:11:41;;;;;;;6.17;5.60;;;26.60;89.60;;;;;;5001679;28;20497;-80
2022/08/01 10:14:09;;;;;;;7.53;6.90;;;26.50;90.40;;;;;;5000825;28;20457;-80
2022/08/01 10:16:37;;;;;;;7.50;6.50;;;26.30;90.60;;;;;;5001478;28;20456;-80
2022/08/01 10:19:07;;;;;;;5.70;5.40;;;26.30;91.10;;;;;;5001572;28;20483;-80
2022/08/01 10:21:34;;;;;;;6.97;6.40;;;26.40;91.10;;;;;;5001702;28;20459;-80
2022/08/01 10:24:03;;;;;;;6.13;5.73;;;26.60;90.80;;;;;;5001368;28;20453;-80
2022/08/01 10:26:34;;;;;;;6.33;5.83;;;26.80;90.20;;;;;;5000942;28;20484;-80
2022/08/01 10:29:02;;;;;;;6.50;6.10;;;27.00;90.60;;;;;;5001737;28;20483;-80
2022/08/01 10:31:32;;;;;;;5.77;5.37;;;27.20;89.10;;;;;;5000930;28;20497;-80
2022/08/01 10:33:59;;;;;;;6.80;6.30;;;27.40;87.80;;;;;;5001370;28;20462;-80
2022/08/01 10:36:27;;;;;;;5.87;5.47;;;27.20;87.80;;;;;;5001970;28;20818;-80
2022/08/01 10:38:55;;;;;;;6.33;5.90;;;27.40;88.50;;;;;;5002046;28;20469;-80
2022/08/01 10:41:23;;;;;;;5.73;5.23;;;27.20;88.00;;;;;;5000885;28;20505;-80
2022/08/01 10:43:52;;;;;;;6.20;5.80;;;27.20;88.90;;;;;;5001176;28;20459;-80
2022/08/01 10:46:20;;;;;;;5.60;5.30;;;27.20;88.20;;;;;;5000757;28;20458;-80
2022/08/01 10:48:53;;;;;;;6.03;5.50;;;27.50;88.10;;;;;;5000203;28;20455;-80
2022/08/01 10:51:21;;;;;;;5.30;4.97;;;27.70;87.60;;;;;;4999241;28;20556;-80
2022/08/01 10:53:50;;;;;;;5.60;5.20;;;27.70;86.30;;;;;;4996233;28;20450;-80
2022/08/01 10:56:17;;;;;;;5.43;4.90;;;28.00;85.60;;;;;;4996199;28;20459;-81
2022/08/01 10:58:46;;;;;;;4.93;4.60;;;28.30;84.00;;;;;;4996393;28;20482;-80
2022/08/01 11:01:20;;;;;;;4.37;4.07;;;28.70;83.00;;;;;;4996253;28;20535;-81
2022/08/01 11:03:59;;;;;;;4.57;4.27;;;29.20;82.70;;;;;;4995796;28;20447;-80
2022/08/01 11:06:34;;;;;;;4.40;4.10;;;29.30;80.90;;;;;;4996318;28;20459;-79
2022/08/01 11:09:03;;;;;;;4.30;4.10;;;29.20;80.00;;;;;;4995927;28;20490;-81
2022/08/01 11:11:30;;;;;;;4.47;4.17;;;28.80;79.80;;;;;;4996126;28;20495;-80
2022/08/01 11:14:03;;;;;;;4.73;4.30;;;28.40;81.20;;;;;;4995767;28;20450;-80
2022/08/01 11:16:33;;;;;;;4.00;3.80;;;28.60;82.50;;;;;;4995923;28;20505;-80
2022/08/01 11:19:00;;;;;;;4.47;4.17;;;28.70;80.70;;;;;;4995743;28;20526;-80
2022/08/01 11:22:03;;;;;;;4.50;4.10;;;28.70;81.70;;;;;;4995784;28;20451;-81
2022/08/01 11:24:57;;;;;;;6.70;5.17;;;28.80;80.50;;;;;;4995689;28;20506;-80
2022/08/01 11:27:26;;;;;;;4.80;4.40;;;28.90;79.10;;;;;;4995834;28;20453;-80
2022/08/01 11:30:25;;;;;;;4.93;4.63;;;28.70;79.70;;;;;;4996205;28;20467;-80
2022/08/01 11:32:56;;;;;;;4.87;4.57;;;28.80;78.60;;;;;;4995763;28;20462;-81
2022/08/01 11:35:26;;;;;;;4.60;4.20;;;28.30;79.20;;;;;;4995114;28;20451;-81
2022/08/01 11:37:55;;;;;;;4.90;4.50;;;27.90;80.50;;;;;;4995528;28;20827;-79
2022/08/01 11:40:23;;;;;;;4.10;3.80;;;27.60;81.40;;;;;;4995524;28;20918;-81
2022/08/01 11:42:52;;;;;;;4.80;4.40;;;27.30;82.60;;;;;;4995328;28;20974;-81
2022/08/01 11:45:18;;;;;;;4.43;4.13;;;26.90;83.40;;;;;;4995119;28;20818;-80
2022/08/01 11:47:47;;;;;;;4.80;4.40;;;26.70;85.10;;;;;;4995583;28;20461;-80
2022/08/01 11:50:35;;;;;;;4.00;3.70;;;26.60;84.80;;;;;;4995112;28;20561;-80
2022/08/01 11:53:04;;;;;;;4.10;3.40;;;26.60;85.00;;;;;;4995491;28;20445;-80
2022/08/01 11:55:32;;;;;;;3.70;3.43;;;26.80;85.00;;;;;;4995168;28;20476;-80
2022/08/01 11:58:03;;;;;;;3.67;3.33;;;27.10;83.70;;;;;;4995624;28;20476;-80
2022/08/01 12:00:31;;;;;;;3.20;3.10;;;27.20;84.40;;;;;;4995090;28;20466;-80
2022/08/01 12:02:59;;;;;;;3.60;3.40;;;27.30;83.30;;;;;;4996525;28;20456;-80
2022/08/01 12:05:27;;;;;;;3.70;3.50;;;27.50;84.00;;;;;;4995493;28;20462;-79
2022/08/01 12:07:56;;;;;;;3.70;3.50;;;27.70;82.80;;;;;;4996104;28;20494;-80
2022/08/01 12:10:25;;;;;;;4.30;3.70;;;27.70;82.50;;;;;;4996276;28;20485;-81
2022/08/01 12:12:53;;;;;;;3.90;3.60;;;27.90;82.40;;;;;;4996427;28;20458;-80
2022/08/01 12:15:22;;;;;;;3.50;3.20;;;27.90;80.80;;;;;;4996207;28;20459;-80
2022/08/01 12:17:50;;;;;;;3.77;3.47;;;27.90;80.20;;;;;;4996849;28;20450;-81
2022/08/01 12:20:23;;;;;;;3.63;3.33;;;28.10;80.20;;;;;;4996946;28;20467;-78
2022/08/01 12:22:55;;;;;;;3.90;3.70;;;28.00;80.20;;;;;;4997710;28;20452;-79
2022/08/01 12:25:22;;;;;;;4.83;4.07;;;28.00;80.30;;;;;;4997199;28;20453;-80
2022/08/01 12:27:49;;;;;;;4.10;3.80;;;28.00;80.10;;;;;;4997714;28;20462;-81
2022/08/01 12:30:18;;;;;;;3.50;3.20;;;28.00;80.00;;;;;;4998679;28;21035;-79
2022/08/01 12:32:46;;;;;;;4.27;3.00;;;28.10;79.50;;;;;;5001523;28;20506;-80
2022/08/01 12:35:15;;;;;;;4.47;4.17;;;28.30;78.50;;;;;;5007219;28;20451;-79
2022/08/01 12:37:44;;;;;;;3.50;3.20;;;28.40;78.00;;;;;;5006462;28;20486;-80
2022/08/01 12:40:14;;;;;;;3.13;2.93;;;28.50;77.50;;;;;;5005000;28;20469;-81
2022/08/01 12:42:43;;;;;;;3.10;2.90;;;28.60;76.50;;;;;;5004410;28;20454;-78
2022/08/01 12:45:12;;;;;;;3.57;3.27;;;29.00;78.40;;;;;;5003018;28;20513;-78
2022/08/01 12:47:39;;;;;;;3.27;3.10;;;29.90;76.20;;;;;;4997333;28;20458;-81
2022/08/01 12:50:08;;;;;;;4.10;3.90;;;30.40;75.30;;;;;;4995243;28;20817;-81
2022/08/01 12:52:35;;;;;;;3.90;3.60;;;30.80;77.10;;;;;;4994580;28;20492;-81
2022/08/01 12:55:05;;;;;;;4.07;3.77;;;31.20;73.10;;;;;;4994182;28;20462;-80
2022/08/01 12:57:33;;;;;;;3.17;2.97;;;31.40;71.90;;;;;;4994713;28;20460;-81
2022/08/01 13:00:12;;;;;;;3.30;3.10;;;31.80;68.70;;;;;;4994668;28;20506;-81